sensor_id;sensor_type;location;lat;lon;timestamp;temperature;humidity
68922;DHT22;55959;51.244;5.724;2023-03-19T00:00:05;15.00;68.00
68922;DHT22;55959;51.244;5.724;2023-03-19T00:02:36;15.00;68.10
68922;DHT22;55959;51.244;5.724;2023-03-19T00:05:03;15.00;68.10
68922;DHT22;55959;51.244;5.724;2023-03-19T00:07:29;15.00;68.20
68922;DHT22;55959;51.244;5.724;2023-03-19T00:09:55;14.90;68.20
68922;DHT22;55959;51.244;5.724;2023-03-19T00:12:21;15.00;68.40
68922;DHT22;55959;51.244;5.724;2023-03-19T00:14:47;14.90;68.30
68922;DHT22;55959;51.244;5.724;2023-03-19T00:17:13;14.90;68.40
68922;DHT22;55959;51.244;5.724;2023-03-19T00:19:39;14.90;68.40
68922;DHT22;55959;51.244;5.724;2023-03-19T00:22:05;14.90;68.50
68922;DHT22;55959;51.244;5.724;2023-03-19T00:24:31;14.80;68.40
68922;DHT22;55959;51.244;5.724;2023-03-19T00:26:57;14.80;68.40
68922;DHT22;55959;51.244;5.724;2023-03-19T00:29:23;14.80;68.50
68922;DHT22;55959;51.244;5.724;2023-03-19T00:31:49;14.80;68.50
68922;DHT22;55959;51.244;5.724;2023-03-19T00:34:15;14.80;68.50
68922;DHT22;55959;51.244;5.724;2023-03-19T00:36:44;14.70;68.50
68922;DHT22;55959;51.244;5.724;2023-03-19T00:39:11;14.70;68.50
68922;DHT22;55959;51.244;5.724;2023-03-19T00:41:36;14.70;68.60
68922;DHT22;55959;51.244;5.724;2023-03-19T00:44:03;14.70;68.60
68922;DHT22;55959;51.244;5.724;2023-03-19T00:46:30;14.70;68.70
68922;DHT22;55959;51.244;5.724;2023-03-19T00:48:56;14.70;68.70
68922;DHT22;55959;51.244;5.724;2023-03-19T00:51:23;14.70;68.70
68922;DHT22;55959;51.244;5.724;2023-03-19T00:53:50;14.70;68.60
68922;DHT22;55959;51.244;5.724;2023-03-19T00:56:17;14.70;68.60
68922;DHT22;55959;51.244;5.724;2023-03-19T00:58:44;14.70;68.70
68922;DHT22;55959;51.244;5.724;2023-03-19T01:01:12;14.70;68.80
68922;DHT22;55959;51.244;5.724;2023-03-19T01:03:40;14.70;68.80
68922;DHT22;55959;51.244;5.724;2023-03-19T01:06:06;14.70;68.80
68922;DHT22;55959;51.244;5.724;2023-03-19T01:08:33;14.70;68.80
68922;DHT22;55959;51.244;5.724;2023-03-19T01:11:08;14.70;68.70
68922;DHT22;55959;51.244;5.724;2023-03-19T01:13:36;14.70;68.70
68922;DHT22;55959;51.244;5.724;2023-03-19T01:16:03;14.70;68.60
68922;DHT22;55959;51.244;5.724;2023-03-19T01:18:29;14.70;68.60
68922;DHT22;55959;51.244;5.724;2023-03-19T01:20:55;14.60;68.50
68922;DHT22;55959;51.244;5.724;2023-03-19T01:23:21;14.60;68.40
68922;DHT22;55959;51.244;5.724;2023-03-19T01:25:47;14.60;68.50
68922;DHT22;55959;51.244;5.724;2023-03-19T01:28:12;14.60;68.50
68922;DHT22;55959;51.244;5.724;2023-03-19T01:30:38;14.50;68.50
68922;DHT22;55959;51.244;5.724;2023-03-19T01:33:05;14.60;68.70
68922;DHT22;55959;51.244;5.724;2023-03-19T01:35:32;14.50;68.70
68922;DHT22;55959;51.244;5.724;2023-03-19T01:37:58;14.50;69.70
68922;DHT22;55959;51.244;5.724;2023-03-19T01:40:24;14.50;68.90
68922;DHT22;55959;51.244;5.724;2023-03-19T01:43:16;14.40;68.90
68922;DHT22;55959;51.244;5.724;2023-03-19T01:45:54;14.40;69.00
68922;DHT22;55959;51.244;5.724;2023-03-19T01:48:28;14.40;69.10
68922;DHT22;55959;51.244;5.724;2023-03-19T01:51:00;14.40;69.20
68922;DHT22;55959;51.244;5.724;2023-03-19T01:53:31;14.30;69.20
68922;DHT22;55959;51.244;5.724;2023-03-19T01:56:03;14.30;69.20
68922;DHT22;55959;51.244;5.724;2023-03-19T01:58:33;14.30;69.30
68922;DHT22;55959;51.244;5.724;2023-03-19T02:00:59;14.30;69.30
68922;DHT22;55959;51.244;5.724;2023-03-19T02:03:25;14.30;69.30
68922;DHT22;55959;51.244;5.724;2023-03-19T02:05:52;14.30;69.40
68922;DHT22;55959;51.244;5.724;2023-03-19T02:08:20;14.30;69.50
68922;DHT22;55959;51.244;5.724;2023-03-19T02:10:48;14.30;69.50
68922;DHT22;55959;51.244;5.724;2023-03-19T02:13:15;14.30;69.60
68922;DHT22;55959;51.244;5.724;2023-03-19T02:15:40;14.30;69.60
68922;DHT22;55959;51.244;5.724;2023-03-19T02:18:06;14.30;69.60
68922;DHT22;55959;51.244;5.724;2023-03-19T02:20:43;14.30;69.70
68922;DHT22;55959;51.244;5.724;2023-03-19T02:28:14;14.30;69.80
68922;DHT22;55959;51.244;5.724;2023-03-19T02:30:42;14.30;69.90
68922;DHT22;55959;51.244;5.724;2023-03-19T02:33:15;14.30;69.90
68922;DHT22;55959;51.244;5.724;2023-03-19T02:35:47;14.30;70.00
68922;DHT22;55959;51.244;5.724;2023-03-19T02:38:14;14.30;70.00
68922;DHT22;55959;51.244;5.724;2023-03-19T02:40:47;14.30;70.10
68922;DHT22;55959;51.244;5.724;2023-03-19T02:43:16;14.30;70.10
68922;DHT22;55959;51.244;5.724;2023-03-19T02:45:42;14.40;70.10
68922;DHT22;55959;51.244;5.724;2023-03-19T02:48:07;14.40;70.20
68922;DHT22;55959;51.244;5.724;2023-03-19T02:50:33;14.30;70.20
68922;DHT22;55959;51.244;5.724;2023-03-19T02:52:59;14.40;70.20
68922;DHT22;55959;51.244;5.724;2023-03-19T02:55:24;14.30;70.20
68922;DHT22;55959;51.244;5.724;2023-03-19T02:57:50;14.30;70.20
68922;DHT22;55959;51.244;5.724;2023-03-19T03:00:16;14.40;70.20
68922;DHT22;55959;51.244;5.724;2023-03-19T03:02:43;14.40;70.20
68922;DHT22;55959;51.244;5.724;2023-03-19T03:05:09;14.40;70.20
68922;DHT22;55959;51.244;5.724;2023-03-19T03:07:35;14.40;70.20
68922;DHT22;55959;51.244;5.724;2023-03-19T03:10:01;14.40;70.20
68922;DHT22;55959;51.244;5.724;2023-03-19T03:12:26;14.40;70.20
68922;DHT22;55959;51.244;5.724;2023-03-19T03:14:52;14.40;70.30
68922;DHT22;55959;51.244;5.724;2023-03-19T03:17:18;14.40;70.30
68922;DHT22;55959;51.244;5.724;2023-03-19T03:19:44;14.40;71.30
68922;DHT22;55959;51.244;5.724;2023-03-19T03:22:10;14.50;70.50
68922;DHT22;55959;51.244;5.724;2023-03-19T03:24:36;14.40;70.50
68922;DHT22;55959;51.244;5.724;2023-03-19T03:27:04;14.40;70.70
68922;DHT22;55959;51.244;5.724;2023-03-19T03:29:30;14.50;71.00
68922;DHT22;55959;51.244;5.724;2023-03-19T03:31:56;14.40;71.20
68922;DHT22;55959;51.244;5.724;2023-03-19T03:34:22;14.40;71.40
68922;DHT22;55959;51.244;5.724;2023-03-19T03:36:48;14.40;71.70
68922;DHT22;55959;51.244;5.724;2023-03-19T03:39:13;14.40;71.80
68922;DHT22;55959;51.244;5.724;2023-03-19T03:41:39;14.40;72.00
68922;DHT22;55959;51.244;5.724;2023-03-19T03:44:05;14.40;72.10
68922;DHT22;55959;51.244;5.724;2023-03-19T03:46:31;14.40;72.20
68922;DHT22;55959;51.244;5.724;2023-03-19T03:48:58;14.30;72.20
68922;DHT22;55959;51.244;5.724;2023-03-19T03:51:23;14.30;72.40
68922;DHT22;55959;51.244;5.724;2023-03-19T03:53:49;14.30;72.40
68922;DHT22;55959;51.244;5.724;2023-03-19T03:56:15;14.30;72.40
68922;DHT22;55959;51.244;5.724;2023-03-19T03:58:41;14.30;72.50
68922;DHT22;55959;51.244;5.724;2023-03-19T04:01:07;14.30;72.50
68922;DHT22;55959;51.244;5.724;2023-03-19T04:03:33;14.30;72.60
68922;DHT22;55959;51.244;5.724;2023-03-19T04:05:59;14.30;72.60
68922;DHT22;55959;51.244;5.724;2023-03-19T04:08:25;14.30;72.70
68922;DHT22;55959;51.244;5.724;2023-03-19T04:10:50;14.30;72.80
68922;DHT22;55959;51.244;5.724;2023-03-19T04:13:16;14.30;72.90
68922;DHT22;55959;51.244;5.724;2023-03-19T04:15:43;14.30;73.00
68922;DHT22;55959;51.244;5.724;2023-03-19T04:18:09;14.30;73.00
68922;DHT22;55959;51.244;5.724;2023-03-19T04:20:35;14.30;73.20
68922;DHT22;55959;51.244;5.724;2023-03-19T04:23:00;14.30;73.30
68922;DHT22;55959;51.244;5.724;2023-03-19T04:25:26;14.30;73.40
68922;DHT22;55959;51.244;5.724;2023-03-19T04:27:52;14.30;73.30
68922;DHT22;55959;51.244;5.724;2023-03-19T04:30:18;14.30;73.30
68922;DHT22;55959;51.244;5.724;2023-03-19T04:32:44;14.30;73.50
68922;DHT22;55959;51.244;5.724;2023-03-19T04:35:10;14.30;73.40
68922;DHT22;55959;51.244;5.724;2023-03-19T04:37:36;14.30;73.60
68922;DHT22;55959;51.244;5.724;2023-03-19T04:40:02;14.30;73.50
68922;DHT22;55959;51.244;5.724;2023-03-19T04:42:28;14.30;73.60
68922;DHT22;55959;51.244;5.724;2023-03-19T04:44:54;14.30;73.80
68922;DHT22;55959;51.244;5.724;2023-03-19T04:47:20;14.30;73.80
68922;DHT22;55959;51.244;5.724;2023-03-19T04:49:46;14.30;73.90
68922;DHT22;55959;51.244;5.724;2023-03-19T04:52:13;14.40;74.00
68922;DHT22;55959;51.244;5.724;2023-03-19T04:54:39;14.40;74.00
68922;DHT22;55959;51.244;5.724;2023-03-19T04:57:04;14.40;74.00
68922;DHT22;55959;51.244;5.724;2023-03-19T04:59:30;14.40;74.00
68922;DHT22;55959;51.244;5.724;2023-03-19T05:01:56;14.40;74.00
68922;DHT22;55959;51.244;5.724;2023-03-19T05:04:21;14.40;74.10
68922;DHT22;55959;51.244;5.724;2023-03-19T05:06:48;14.40;74.00
68922;DHT22;55959;51.244;5.724;2023-03-19T05:09:14;14.40;74.00
68922;DHT22;55959;51.244;5.724;2023-03-19T05:11:40;14.40;74.10
68922;DHT22;55959;51.244;5.724;2023-03-19T05:14:06;14.40;74.10
68922;DHT22;55959;51.244;5.724;2023-03-19T05:16:33;14.40;74.20
68922;DHT22;55959;51.244;5.724;2023-03-19T05:18:59;14.40;74.10
68922;DHT22;55959;51.244;5.724;2023-03-19T05:21:25;14.40;74.10
68922;DHT22;55959;51.244;5.724;2023-03-19T05:23:51;14.40;74.10
68922;DHT22;55959;51.244;5.724;2023-03-19T05:26:19;14.40;74.20
68922;DHT22;55959;51.244;5.724;2023-03-19T05:28:46;14.40;74.20
68922;DHT22;55959;51.244;5.724;2023-03-19T05:31:11;14.40;74.20
68922;DHT22;55959;51.244;5.724;2023-03-19T05:33:37;14.40;74.20
68922;DHT22;55959;51.244;5.724;2023-03-19T05:36:03;14.40;74.20
68922;DHT22;55959;51.244;5.724;2023-03-19T05:38:29;14.40;74.30
68922;DHT22;55959;51.244;5.724;2023-03-19T05:40:55;14.30;74.30
68922;DHT22;55959;51.244;5.724;2023-03-19T05:43:20;14.30;74.40
68922;DHT22;55959;51.244;5.724;2023-03-19T05:45:50;14.30;74.50
68922;DHT22;55959;51.244;5.724;2023-03-19T05:48:19;14.30;74.60
68922;DHT22;55959;51.244;5.724;2023-03-19T05:50:44;14.30;74.60
68922;DHT22;55959;51.244;5.724;2023-03-19T05:53:10;14.30;74.60
68922;DHT22;55959;51.244;5.724;2023-03-19T05:55:37;14.30;74.80
68922;DHT22;55959;51.244;5.724;2023-03-19T05:58:03;14.30;74.80
68922;DHT22;55959;51.244;5.724;2023-03-19T06:00:29;14.30;74.90
68922;DHT22;55959;51.244;5.724;2023-03-19T06:02:54;14.30;74.80
68922;DHT22;55959;51.244;5.724;2023-03-19T06:05:20;14.30;75.70
68922;DHT22;55959;51.244;5.724;2023-03-19T06:07:47;14.30;74.80
68922;DHT22;55959;51.244;5.724;2023-03-19T06:10:12;14.30;74.80
68922;DHT22;55959;51.244;5.724;2023-03-19T06:12:39;14.30;74.80
68922;DHT22;55959;51.244;5.724;2023-03-19T06:15:05;14.30;74.80
68922;DHT22;55959;51.244;5.724;2023-03-19T06:17:31;14.30;74.80
68922;DHT22;55959;51.244;5.724;2023-03-19T06:19:57;14.30;74.80
68922;DHT22;55959;51.244;5.724;2023-03-19T06:22:23;14.30;74.90
68922;DHT22;55959;51.244;5.724;2023-03-19T06:24:48;14.30;75.00
68922;DHT22;55959;51.244;5.724;2023-03-19T06:27:14;14.30;75.00
68922;DHT22;55959;51.244;5.724;2023-03-19T06:29:40;14.30;75.10
68922;DHT22;55959;51.244;5.724;2023-03-19T06:32:06;14.30;75.20
68922;DHT22;55959;51.244;5.724;2023-03-19T06:34:32;14.20;75.20
68922;DHT22;55959;51.244;5.724;2023-03-19T06:36:58;14.30;75.20
68922;DHT22;55959;51.244;5.724;2023-03-19T06:39:23;14.20;75.20
68922;DHT22;55959;51.244;5.724;2023-03-19T06:41:49;14.30;75.30
68922;DHT22;55959;51.244;5.724;2023-03-19T06:44:15;14.30;75.20
68922;DHT22;55959;51.244;5.724;2023-03-19T06:46:41;14.30;75.20
68922;DHT22;55959;51.244;5.724;2023-03-19T06:49:07;14.30;75.20
68922;DHT22;55959;51.244;5.724;2023-03-19T06:51:32;14.30;75.30
68922;DHT22;55959;51.244;5.724;2023-03-19T06:53:58;14.30;75.40
68922;DHT22;55959;51.244;5.724;2023-03-19T06:56:24;14.30;75.50
68922;DHT22;55959;51.244;5.724;2023-03-19T06:58:50;14.30;75.50
68922;DHT22;55959;51.244;5.724;2023-03-19T07:01:16;14.30;75.60
68922;DHT22;55959;51.244;5.724;2023-03-19T07:03:41;14.30;75.80
68922;DHT22;55959;51.244;5.724;2023-03-19T07:06:07;14.30;75.70
68922;DHT22;55959;51.244;5.724;2023-03-19T07:08:33;14.30;75.80
68922;DHT22;55959;51.244;5.724;2023-03-19T07:11:03;14.30;75.90
68922;DHT22;55959;51.244;5.724;2023-03-19T07:13:30;14.30;76.00
68922;DHT22;55959;51.244;5.724;2023-03-19T07:15:56;14.30;76.00
68922;DHT22;55959;51.244;5.724;2023-03-19T07:18:22;14.30;76.00
68922;DHT22;55959;51.244;5.724;2023-03-19T07:20:49;14.40;76.00
68922;DHT22;55959;51.244;5.724;2023-03-19T07:23:15;14.30;76.00
68922;DHT22;55959;51.244;5.724;2023-03-19T07:25:40;14.40;76.10
68922;DHT22;55959;51.244;5.724;2023-03-19T07:28:06;14.40;76.00
68922;DHT22;55959;51.244;5.724;2023-03-19T07:30:33;14.40;76.00
68922;DHT22;55959;51.244;5.724;2023-03-19T07:33:00;14.40;76.00
68922;DHT22;55959;51.244;5.724;2023-03-19T07:35:26;14.40;76.10
68922;DHT22;55959;51.244;5.724;2023-03-19T07:37:51;14.40;76.10
68922;DHT22;55959;51.244;5.724;2023-03-19T07:40:17;14.40;76.10
68922;DHT22;55959;51.244;5.724;2023-03-19T07:42:43;14.40;76.20
68922;DHT22;55959;51.244;5.724;2023-03-19T07:45:09;14.50;76.20
68922;DHT22;55959;51.244;5.724;2023-03-19T07:47:35;14.50;76.30
68922;DHT22;55959;51.244;5.724;2023-03-19T07:50:00;14.50;76.20
68922;DHT22;55959;51.244;5.724;2023-03-19T07:52:26;14.60;76.30
68922;DHT22;55959;51.244;5.724;2023-03-19T07:54:52;14.60;76.60
68922;DHT22;55959;51.244;5.724;2023-03-19T07:57:18;14.60;76.60
68922;DHT22;55959;51.244;5.724;2023-03-19T07:59:45;14.70;77.10
68922;DHT22;55959;51.244;5.724;2023-03-19T08:02:11;14.80;77.60
68922;DHT22;55959;51.244;5.724;2023-03-19T08:04:37;14.90;77.60
68922;DHT22;55959;51.244;5.724;2023-03-19T08:07:04;15.00;77.20
68922;DHT22;55959;51.244;5.724;2023-03-19T08:09:30;15.10;76.70
68922;DHT22;55959;51.244;5.724;2023-03-19T08:11:56;15.10;76.30
68922;DHT22;55959;51.244;5.724;2023-03-19T08:14:22;15.20;76.10
68922;DHT22;55959;51.244;5.724;2023-03-19T08:16:48;15.20;75.80
68922;DHT22;55959;51.244;5.724;2023-03-19T08:19:14;15.30;75.60
68922;DHT22;55959;51.244;5.724;2023-03-19T08:21:41;15.30;75.20
68922;DHT22;55959;51.244;5.724;2023-03-19T08:24:07;15.30;74.80
68922;DHT22;55959;51.244;5.724;2023-03-19T08:26:33;15.40;74.60
68922;DHT22;55959;51.244;5.724;2023-03-19T08:28:59;15.40;74.20
68922;DHT22;55959;51.244;5.724;2023-03-19T08:31:25;15.40;74.00
68922;DHT22;55959;51.244;5.724;2023-03-19T08:33:51;15.40;73.50
68922;DHT22;55959;51.244;5.724;2023-03-19T08:36:17;15.40;73.20
68922;DHT22;55959;51.244;5.724;2023-03-19T08:38:43;15.40;73.00
68922;DHT22;55959;51.244;5.724;2023-03-19T08:41:09;15.50;73.00
68922;DHT22;55959;51.244;5.724;2023-03-19T08:43:35;15.50;73.00
68922;DHT22;55959;51.244;5.724;2023-03-19T08:46:03;15.50;72.60
68922;DHT22;55959;51.244;5.724;2023-03-19T08:48:30;15.50;72.10
68922;DHT22;55959;51.244;5.724;2023-03-19T08:50:58;15.60;71.90
68922;DHT22;55959;51.244;5.724;2023-03-19T08:53:25;15.60;71.60
68922;DHT22;55959;51.244;5.724;2023-03-19T08:55:56;15.60;71.40
68922;DHT22;55959;51.244;5.724;2023-03-19T08:58:24;15.60;71.20
68922;DHT22;55959;51.244;5.724;2023-03-19T09:00:51;15.70;71.20
68922;DHT22;55959;51.244;5.724;2023-03-19T09:03:18;15.70;70.80
68922;DHT22;55959;51.244;5.724;2023-03-19T09:05:46;15.70;70.30
68922;DHT22;55959;51.244;5.724;2023-03-19T09:08:12;15.70;69.80
68922;DHT22;55959;51.244;5.724;2023-03-19T09:10:38;15.80;69.40
68922;DHT22;55959;51.244;5.724;2023-03-19T09:13:04;15.80;68.90
68922;DHT22;55959;51.244;5.724;2023-03-19T09:15:30;15.70;68.80
68922;DHT22;55959;51.244;5.724;2023-03-19T09:17:56;15.70;68.30
68922;DHT22;55959;51.244;5.724;2023-03-19T09:20:21;15.70;68.50
68922;DHT22;55959;51.244;5.724;2023-03-19T09:22:47;15.70;68.40
68922;DHT22;55959;51.244;5.724;2023-03-19T09:25:13;15.70;68.40
68922;DHT22;55959;51.244;5.724;2023-03-19T09:27:39;15.70;68.40
68922;DHT22;55959;51.244;5.724;2023-03-19T09:30:05;15.70;68.40
68922;DHT22;55959;51.244;5.724;2023-03-19T09:32:34;15.70;68.30
68922;DHT22;55959;51.244;5.724;2023-03-19T09:35:02;15.70;68.40
68922;DHT22;55959;51.244;5.724;2023-03-19T09:37:27;15.70;68.50
68922;DHT22;55959;51.244;5.724;2023-03-19T09:39:53;15.80;68.70
68922;DHT22;55959;51.244;5.724;2023-03-19T09:45:15;15.80;68.10
68922;DHT22;55959;51.244;5.724;2023-03-19T09:47:44;15.80;68.20
68922;DHT22;55959;51.244;5.724;2023-03-19T09:50:18;15.80;68.10
68922;DHT22;55959;51.244;5.724;2023-03-19T09:53:00;15.90;67.50
68922;DHT22;55959;51.244;5.724;2023-03-19T09:58:16;15.90;66.90
68922;DHT22;55959;51.244;5.724;2023-03-19T10:00:50;15.90;66.90
68922;DHT22;55959;51.244;5.724;2023-03-19T10:09:00;16.10;66.70
68922;DHT22;55959;51.244;5.724;2023-03-19T10:17:45;16.10;66.60
68922;DHT22;55959;51.244;5.724;2023-03-19T10:20:44;16.10;66.60
68922;DHT22;55959;51.244;5.724;2023-03-19T10:26:15;16.20;66.80
68922;DHT22;55959;51.244;5.724;2023-03-19T10:28:48;16.30;66.20
68922;DHT22;55959;51.244;5.724;2023-03-19T10:31:45;16.30;65.10
68922;DHT22;55959;51.244;5.724;2023-03-19T10:34:32;16.40;64.30
68922;DHT22;55959;51.244;5.724;2023-03-19T10:39:42;16.50;63.80
68922;DHT22;55959;51.244;5.724;2023-03-19T10:47:43;16.70;63.30
68922;DHT22;55959;51.244;5.724;2023-03-19T10:50:27;16.80;62.60
68922;DHT22;55959;51.244;5.724;2023-03-19T10:53:03;16.80;62.80
68922;DHT22;55959;51.244;5.724;2023-03-19T10:55:55;16.80;62.50
68922;DHT22;55959;51.244;5.724;2023-03-19T10:58:26;16.90;62.60
68922;DHT22;55959;51.244;5.724;2023-03-19T11:06:21;17.00;62.10
68922;DHT22;55959;51.244;5.724;2023-03-19T11:08:56;17.10;62.20
68922;DHT22;55959;51.244;5.724;2023-03-19T11:11:35;17.10;61.90
68922;DHT22;55959;51.244;5.724;2023-03-19T11:14:18;17.20;61.90
68922;DHT22;55959;51.244;5.724;2023-03-19T11:19:56;17.30;61.90
68922;DHT22;55959;51.244;5.724;2023-03-19T11:25:02;17.40;61.40
68922;DHT22;55959;51.244;5.724;2023-03-19T11:27:38;17.40;61.30
68922;DHT22;55959;51.244;5.724;2023-03-19T11:30:13;17.50;61.50
68922;DHT22;55959;51.244;5.724;2023-03-19T11:33:17;17.60;61.30
68922;DHT22;55959;51.244;5.724;2023-03-19T11:50:59;17.80;60.00
68922;DHT22;55959;51.244;5.724;2023-03-19T12:05:08;18.20;58.50
68922;DHT22;55959;51.244;5.724;2023-03-19T12:15:00;18.40;57.50
68922;DHT22;55959;51.244;5.724;2023-03-19T12:26:23;18.60;57.10
68922;DHT22;55959;51.244;5.724;2023-03-19T12:34:49;18.80;57.10
68922;DHT22;55959;51.244;5.724;2023-03-19T12:40:21;18.90;57.10
68922;DHT22;55959;51.244;5.724;2023-03-19T12:42:49;19.00;56.70
68922;DHT22;55959;51.244;5.724;2023-03-19T12:45:38;19.10;56.60
68922;DHT22;55959;51.244;5.724;2023-03-19T12:48:18;19.20;56.20
68922;DHT22;55959;51.244;5.724;2023-03-19T12:50:54;19.20;55.40
68922;DHT22;55959;51.244;5.724;2023-03-19T12:53:53;19.30;54.50
68922;DHT22;55959;51.244;5.724;2023-03-19T12:56:34;19.30;54.70
68922;DHT22;55959;51.244;5.724;2023-03-19T13:04:57;19.30;54.10
68922;DHT22;55959;51.244;5.724;2023-03-19T13:07:54;19.30;53.90
68922;DHT22;55959;51.244;5.724;2023-03-19T13:10:29;19.30;54.10
68922;DHT22;55959;51.244;5.724;2023-03-19T13:12:57;19.30;54.10
68922;DHT22;55959;51.244;5.724;2023-03-19T13:15:30;19.30;54.00
68922;DHT22;55959;51.244;5.724;2023-03-19T13:26:54;19.50;53.20
68922;DHT22;55959;51.244;5.724;2023-03-19T13:29:23;19.60;53.40
68922;DHT22;55959;51.244;5.724;2023-03-19T13:31:51;19.60;53.10
68922;DHT22;55959;51.244;5.724;2023-03-19T13:34:25;19.60;53.40
68922;DHT22;55959;51.244;5.724;2023-03-19T13:37:06;19.60;53.80
68922;DHT22;55959;51.244;5.724;2023-03-19T13:39:37;19.70;53.60
68922;DHT22;55959;51.244;5.724;2023-03-19T13:45:33;19.80;53.40
68922;DHT22;55959;51.244;5.724;2023-03-19T13:53:39;19.90;52.70
68922;DHT22;55959;51.244;5.724;2023-03-19T13:56:11;19.90;52.80
68922;DHT22;55959;51.244;5.724;2023-03-19T13:58:51;20.00;52.10
68922;DHT22;55959;51.244;5.724;2023-03-19T14:03:56;20.00;52.50
68922;DHT22;55959;51.244;5.724;2023-03-19T14:06:42;20.10;52.70
68922;DHT22;55959;51.244;5.724;2023-03-19T14:12:10;20.10;52.40
68922;DHT22;55959;51.244;5.724;2023-03-19T14:14:54;20.10;52.50
68922;DHT22;55959;51.244;5.724;2023-03-19T14:17:29;20.10;52.60
68922;DHT22;55959;51.244;5.724;2023-03-19T14:29:00;20.00;52.40
68922;DHT22;55959;51.244;5.724;2023-03-19T14:34:10;19.90;52.60
68922;DHT22;55959;51.244;5.724;2023-03-19T14:36:48;19.80;52.80
68922;DHT22;55959;51.244;5.724;2023-03-19T14:39:24;19.80;52.90
68922;DHT22;55959;51.244;5.724;2023-03-19T14:50:26;19.70;53.20
68922;DHT22;55959;51.244;5.724;2023-03-19T14:53:40;19.70;54.00
68922;DHT22;55959;51.244;5.724;2023-03-19T14:56:36;19.70;53.70
68922;DHT22;55959;51.244;5.724;2023-03-19T14:59:02;19.60;53.70
68922;DHT22;55959;51.244;5.724;2023-03-19T15:01:32;19.60;53.70
68922;DHT22;55959;51.244;5.724;2023-03-19T15:04:05;19.60;53.70
68922;DHT22;55959;51.244;5.724;2023-03-19T15:06:42;19.60;53.70
68922;DHT22;55959;51.244;5.724;2023-03-19T15:09:24;19.60;53.80
68922;DHT22;55959;51.244;5.724;2023-03-19T15:12:27;19.60;53.90
68922;DHT22;55959;51.244;5.724;2023-03-19T15:15:22;19.50;54.00
68922;DHT22;55959;51.244;5.724;2023-03-19T15:18:03;19.50;54.00
68922;DHT22;55959;51.244;5.724;2023-03-19T15:20:42;19.50;54.00
68922;DHT22;55959;51.244;5.724;2023-03-19T15:23:11;19.40;54.00
68922;DHT22;55959;51.244;5.724;2023-03-19T15:25:50;19.40;54.00
68922;DHT22;55959;51.244;5.724;2023-03-19T15:28:23;19.40;53.80
68922;DHT22;55959;51.244;5.724;2023-03-19T15:30:55;19.30;54.30
68922;DHT22;55959;51.244;5.724;2023-03-19T15:33:31;19.30;53.80
68922;DHT22;55959;51.244;5.724;2023-03-19T15:36:26;19.30;53.80
68922;DHT22;55959;51.244;5.724;2023-03-19T15:39:09;19.20;53.70
68922;DHT22;55959;51.244;5.724;2023-03-19T15:41:39;19.10;53.60
68922;DHT22;55959;51.244;5.724;2023-03-19T15:44:14;19.10;53.80
68922;DHT22;55959;51.244;5.724;2023-03-19T15:46:43;19.00;53.80
68922;DHT22;55959;51.244;5.724;2023-03-19T15:51:49;19.00;53.90
68922;DHT22;55959;51.244;5.724;2023-03-19T15:54:18;18.90;54.00
68922;DHT22;55959;51.244;5.724;2023-03-19T15:56:44;18.80;54.10
68922;DHT22;55959;51.244;5.724;2023-03-19T15:59:11;18.90;54.10
68922;DHT22;55959;51.244;5.724;2023-03-19T16:01:37;18.80;54.10
68922;DHT22;55959;51.244;5.724;2023-03-19T16:04:06;18.80;54.20
68922;DHT22;55959;51.244;5.724;2023-03-19T16:06:37;18.70;54.20
68922;DHT22;55959;51.244;5.724;2023-03-19T16:11:49;18.70;54.70
68922;DHT22;55959;51.244;5.724;2023-03-19T16:14:32;18.70;55.10
68922;DHT22;55959;51.244;5.724;2023-03-19T16:17:17;18.60;54.50
68922;DHT22;55959;51.244;5.724;2023-03-19T16:19:53;18.60;54.70
68922;DHT22;55959;51.244;5.724;2023-03-19T16:22:27;18.60;54.80
68922;DHT22;55959;51.244;5.724;2023-03-19T16:24:54;18.50;54.90
68922;DHT22;55959;51.244;5.724;2023-03-19T16:27:30;18.50;55.10
68922;DHT22;55959;51.244;5.724;2023-03-19T16:30:18;18.50;55.30
68922;DHT22;55959;51.244;5.724;2023-03-19T16:32:45;18.40;55.50
68922;DHT22;55959;51.244;5.724;2023-03-19T16:35:22;18.40;55.40
68922;DHT22;55959;51.244;5.724;2023-03-19T16:37:52;18.40;55.50
68922;DHT22;55959;51.244;5.724;2023-03-19T16:42:52;18.40;55.60
68922;DHT22;55959;51.244;5.724;2023-03-19T16:45:28;18.40;55.70
68922;DHT22;55959;51.244;5.724;2023-03-19T16:47:58;18.30;55.60
68922;DHT22;55959;51.244;5.724;2023-03-19T16:50:31;18.30;55.50
68922;DHT22;55959;51.244;5.724;2023-03-19T16:53:01;18.30;55.40
68922;DHT22;55959;51.244;5.724;2023-03-19T16:55:30;18.20;55.50
68922;DHT22;55959;51.244;5.724;2023-03-19T16:58:03;18.20;55.70
68922;DHT22;55959;51.244;5.724;2023-03-19T17:00:32;18.20;55.80
68922;DHT22;55959;51.244;5.724;2023-03-19T17:02:59;18.10;56.10
68922;DHT22;55959;51.244;5.724;2023-03-19T17:05:27;18.00;56.20
68922;DHT22;55959;51.244;5.724;2023-03-19T17:07:53;17.90;56.30
68922;DHT22;55959;51.244;5.724;2023-03-19T17:10:22;17.80;56.50
68922;DHT22;55959;51.244;5.724;2023-03-19T17:12:52;17.70;56.70
68922;DHT22;55959;51.244;5.724;2023-03-19T17:15:27;17.60;56.80
68922;DHT22;55959;51.244;5.724;2023-03-19T17:17:54;17.50;56.80
68922;DHT22;55959;51.244;5.724;2023-03-19T17:20:24;17.40;56.70
68922;DHT22;55959;51.244;5.724;2023-03-19T17:22:52;17.30;56.80
68922;DHT22;55959;51.244;5.724;2023-03-19T17:25:18;17.20;56.90
68922;DHT22;55959;51.244;5.724;2023-03-19T17:27:44;17.10;57.10
68922;DHT22;55959;51.244;5.724;2023-03-19T17:30:11;17.00;57.40
68922;DHT22;55959;51.244;5.724;2023-03-19T17:32:38;16.90;57.60
68922;DHT22;55959;51.244;5.724;2023-03-19T17:35:21;16.90;57.80
68922;DHT22;55959;51.244;5.724;2023-03-19T17:37:47;16.80;58.00
68922;DHT22;55959;51.244;5.724;2023-03-19T17:42:46;16.70;58.10
68922;DHT22;55959;51.244;5.724;2023-03-19T17:45:18;16.60;58.10
68922;DHT22;55959;51.244;5.724;2023-03-19T17:47:50;16.50;58.10
68922;DHT22;55959;51.244;5.724;2023-03-19T17:50:20;16.50;58.20
68922;DHT22;55959;51.244;5.724;2023-03-19T17:52:47;16.40;58.40
68922;DHT22;55959;51.244;5.724;2023-03-19T17:55:26;16.40;58.40
68922;DHT22;55959;51.244;5.724;2023-03-19T17:57:54;16.30;58.60
68922;DHT22;55959;51.244;5.724;2023-03-19T18:00:23;16.20;58.70
68922;DHT22;55959;51.244;5.724;2023-03-19T18:02:51;16.20;58.80
68922;DHT22;55959;51.244;5.724;2023-03-19T18:05:22;16.10;59.00
68922;DHT22;55959;51.244;5.724;2023-03-19T18:07:50;16.00;59.10
68922;DHT22;55959;51.244;5.724;2023-03-19T18:10:25;16.00;59.20
68922;DHT22;55959;51.244;5.724;2023-03-19T18:12:54;16.00;59.40
68922;DHT22;55959;51.244;5.724;2023-03-19T18:15:20;15.90;59.50
68922;DHT22;55959;51.244;5.724;2023-03-19T18:17:49;15.80;59.60
68922;DHT22;55959;51.244;5.724;2023-03-19T18:20:18;15.80;59.80